Terminal Aerodrome Forecast
Issued by NWS

Home | Current Version | Previous Version | Text Only | Print | Product List | Glossary On
Versions: 1 2 3 4 5 6 7 8 9 10 11 12 13 14 15 16 17 18 19
000
FTUS41 KBTV 041121
TAFMSS
TAF
KMSS 041121Z 0412/0512 24010G18KT P6SM SCT025 BKN035
      TEMPO 0412/0414 OVC030
     FM041800 24012G22KT P6SM FEW040 SCT100
     FM050300 27011KT P6SM SCT045 BKN140
     FM051000 28007KT P6SM SCT250=

USA.gov is the U.S. government's official web portal to all federal, state and local government web resources and services.